Time;durP1;ratioP1;P1;durP2;ratioP2;P2;SDS_P1;SDS_P2;PMS_P1;PMS_P2;Temp;Humidity;BMP_temperature;BMP_pressure;BME280_temperature;BME280_humidity;BME280_pressure;Samples;Min_cycle;Max_cycle;Signal;HPM_P1;HPM_P2
2023/07/01 00:01:12;;;;;;;34.63;30.10;;;18.10;99.90;;;;;;5018088;23;20482;-86
2023/07/01 00:03:55;;;;;;;36.27;32.33;;;18.10;99.90;;;;;;5267535;23;20622;-88
2023/07/01 00:06:27;;;;;;;41.10;32.90;;;18.30;99.90;;;;;;4935308;29;20896;-88
2023/07/01 00:09:12;;;;;;;37.83;34.03;;;18.20;99.90;;;;;;4988343;23;20509;-88
2023/07/01 00:11:40;;;;;;;43.00;38.20;;;18.10;99.90;;;;;;4925595;29;20902;-85
2023/07/01 00:16:48;;;;;;;39.03;35.10;;;17.90;99.90;;;;;;5013671;23;20522;-87
2023/07/01 00:30:06;;;;;;;46.20;41.40;;;17.70;99.90;;;;;;5805789;23;21389;-88
2023/07/01 00:37:57;;;;;;;44.50;39.63;;;17.60;99.90;;;;;;4970488;23;20500;-87
2023/07/01 00:40:33;;;;;;;43.50;39.43;;;17.60;99.90;;;;;;4914123;29;20456;-89
2023/07/01 00:43:01;;;;;;;43.70;39.30;;;17.60;99.90;;;;;;5117559;23;20478;-89
2023/07/01 00:45:38;;;;;;;43.00;38.60;;;17.60;99.90;;;;;;4963836;28;20464;-89
2023/07/01 00:48:11;;;;;;;41.53;37.27;;;17.50;99.90;;;;;;4976094;28;20529;-89
2023/07/01 00:50:39;;;;;;;41.63;37.57;;;17.40;99.90;;;;;;4981857;28;20436;-88
2023/07/01 00:53:11;;;;;;;40.43;36.10;;;17.50;99.90;;;;;;4966055;28;20645;-89
2023/07/01 00:55:43;;;;;;;41.70;37.77;;;17.90;99.90;;;;;;5045168;23;20669;-89
2023/07/01 01:06:33;;;;;;;39.23;35.30;;;17.60;99.90;;;;;;5122124;23;3980786;-88
2023/07/01 01:09:23;;;;;;;41.00;36.73;;;17.60;99.90;;;;;;5187355;23;20486;-91
2023/07/01 01:11:55;;;;;;;41.63;37.67;;;17.60;99.90;;;;;;4950686;29;20487;-88
2023/07/01 01:14:25;;;;;;;42.90;38.60;;;17.80;99.90;;;;;;5220661;23;21382;-88
2023/07/01 01:16:54;;;;;;;46.63;42.20;;;17.70;99.90;;;;;;5264351;23;20503;-89
2023/07/01 01:19:46;;;;;;;46.03;40.93;;;18.00;99.90;;;;;;4935379;29;20421;-90
2023/07/01 01:22:46;;;;;;;46.27;38.10;;;18.10;99.90;;;;;;4930421;29;20485;-87
2023/07/01 01:25:31;;;;;;;43.20;39.00;;;17.70;99.90;;;;;;4921898;29;20435;-89
2023/07/01 01:28:00;;;;;;;43.93;39.40;;;17.70;99.90;;;;;;5315650;23;20460;-90
2023/07/01 01:33:02;;;;;;;42.73;38.33;;;17.80;99.90;;;;;;4918916;29;20470;-88
2023/07/01 01:35:36;;;;;;;43.00;36.80;;;17.80;99.90;;;;;;4917779;29;20411;-88
2023/07/01 01:38:10;;;;;;;39.47;35.37;;;17.90;99.90;;;;;;5032024;23;20526;-86
2023/07/01 01:40:45;;;;;;;38.90;34.90;;;17.90;99.90;;;;;;4931725;29;20424;-89
2023/07/01 01:43:37;;;;;;;37.07;32.80;;;17.80;99.90;;;;;;5040145;23;20507;-90
2023/07/01 01:46:09;;;;;;;34.90;30.07;;;17.90;99.90;;;;;;5174227;23;20476;-88
2023/07/01 01:48:39;;;;;;;32.27;28.87;;;17.70;99.90;;;;;;4936994;29;20483;-90
2023/07/01 01:51:13;;;;;;;31.43;28.23;;;17.80;99.90;;;;;;4937522;29;20451;-91
2023/07/01 01:53:44;;;;;;;31.63;28.50;;;18.10;99.90;;;;;;4909572;29;20446;-88
2023/07/01 01:56:13;;;;;;;30.30;26.67;;;18.10;99.90;;;;;;4923270;29;20451;-89
2023/07/01 01:58:42;;;;;;;29.93;26.80;;;18.20;99.90;;;;;;4917357;29;20458;-89
2023/07/01 02:01:10;;;;;;;29.17;24.77;;;18.30;99.90;;;;;;4918082;29;20736;-90
2023/07/01 02:03:48;;;;;;;31.60;26.77;;;18.50;99.90;;;;;;4929268;29;20443;-86
2023/07/01 02:06:15;;;;;;;29.13;26.37;;;18.60;99.90;;;;;;4935291;29;20425;-90
2023/07/01 02:08:46;;;;;;;29.07;26.17;;;18.50;99.90;;;;;;4929406;29;20426;-88
2023/07/01 02:11:37;;;;;;;33.00;26.27;;;18.70;99.90;;;;;;4922231;29;20414;-90
2023/07/01 02:14:09;;;;;;;27.13;24.20;;;18.60;99.90;;;;;;5130047;23;20500;-87
2023/07/01 02:16:43;;;;;;;26.80;23.90;;;18.50;99.90;;;;;;5040219;23;20469;-90
2023/07/01 02:19:19;;;;;;;29.50;25.43;;;18.40;99.90;;;;;;4941117;29;20477;-91
2023/07/01 02:21:53;;;;;;;26.10;22.97;;;18.40;99.90;;;;;;4939177;29;20844;-90
2023/07/01 02:24:26;;;;;;;24.83;21.80;;;18.40;99.90;;;;;;4925367;29;20726;-88
2023/07/01 02:27:01;;;;;;;30.07;23.63;;;18.50;99.90;;;;;;4928408;29;20460;-90
2023/07/01 02:29:29;;;;;;;26.03;23.33;;;18.40;99.90;;;;;;4924307;29;20461;-88
2023/07/01 02:31:59;;;;;;;32.97;24.57;;;18.60;99.90;;;;;;5208713;23;20477;-86
2023/07/01 02:34:30;;;;;;;25.47;22.70;;;18.50;99.90;;;;;;5103666;23;20680;-91
2023/07/01 02:36:58;;;;;;;29.87;23.57;;;18.30;99.90;;;;;;5019094;23;21723;-87
2023/07/01 02:39:39;;;;;;;33.40;22.90;;;18.40;99.90;;;;;;5113856;23;20493;-87
2023/07/01 02:42:09;;;;;;;29.93;23.27;;;18.40;99.90;;;;;;5366158;23;20488;-87
2023/07/01 02:44:41;;;;;;;30.30;23.40;;;18.30;99.90;;;;;;4906159;29;20419;-87
2023/07/01 02:47:21;;;;;;;27.60;22.77;;;18.50;99.90;;;;;;4899927;29;20444;-87
2023/07/01 02:49:49;;;;;;;25.43;22.70;;;18.40;99.90;;;;;;5131962;23;20645;-85
2023/07/01 02:52:21;;;;;;;26.70;22.13;;;18.60;99.90;;;;;;4939542;29;20536;-86
2023/07/01 02:54:48;;;;;;;28.37;22.43;;;18.40;99.90;;;;;;4936700;29;20429;-86
2023/07/01 02:57:19;;;;;;;25.40;21.07;;;18.80;99.90;;;;;;4934799;29;20463;-86
2023/07/01 02:59:47;;;;;;;25.43;22.20;;;19.10;99.90;;;;;;4935592;29;20426;-87
2023/07/01 03:02:16;;;;;;;29.00;24.20;;;19.00;99.90;;;;;;4932229;29;20482;-89
2023/07/01 03:04:49;;;;;;;26.13;22.10;;;18.90;99.90;;;;;;4931593;29;20450;-88
2023/07/01 03:07:25;;;;;;;31.47;24.70;;;19.00;99.90;;;;;;4939937;29;20445;-90
2023/07/01 03:09:53;;;;;;;30.87;25.40;;;19.20;99.90;;;;;;4927643;29;20503;-89
2023/07/01 03:12:24;;;;;;;24.07;21.57;;;19.00;99.90;;;;;;4928869;29;20441;-88
2023/07/01 03:14:54;;;;;;;28.33;23.33;;;18.90;99.90;;;;;;4918686;29;20464;-89
2023/07/01 03:17:24;;;;;;;28.87;23.50;;;18.70;99.90;;;;;;4932007;29;20428;-89
2023/07/01 03:19:59;;;;;;;27.60;22.87;;;19.30;99.90;;;;;;4937566;29;20476;-87
2023/07/01 03:22:26;;;;;;;35.10;24.90;;;19.40;99.90;;;;;;4946790;28;20467;-86
2023/07/01 03:24:54;;;;;;;30.80;24.30;;;19.10;99.90;;;;;;4941099;28;20500;-87
2023/07/01 03:27:35;;;;;;;27.43;23.33;;;19.30;99.90;;;;;;4941066;28;20441;-87
2023/07/01 03:30:02;;;;;;;25.57;21.60;;;19.30;99.90;;;;;;4937862;29;20600;-89
2023/07/01 03:32:33;;;;;;;25.37;21.97;;;19.30;99.90;;;;;;4942086;29;20421;-87
2023/07/01 03:35:01;;;;;;;29.23;25.00;;;19.40;99.90;;;;;;4932784;29;20426;-89
2023/07/01 03:37:29;;;;;;;27.10;21.10;;;19.50;99.90;;;;;;4931650;29;20457;-88
2023/07/01 03:39:58;;;;;;;24.70;22.10;;;19.60;99.90;;;;;;4935754;29;20456;-89
2023/07/01 03:45:40;;;;;;;27.80;21.40;;;19.70;99.90;;;;;;4946083;28;20431;-87
2023/07/01 03:48:11;;;;;;;29.33;20.30;;;19.80;99.90;;;;;;4945269;28;20417;-87
2023/07/01 03:50:41;;;;;;;23.90;21.07;;;19.70;99.90;;;;;;4926690;29;20447;-89
2023/07/01 03:53:14;;;;;;;27.77;24.07;;;19.50;99.90;;;;;;4943678;28;20432;-88
2023/07/01 03:55:44;;;;;;;27.00;21.13;;;19.50;99.90;;;;;;4942236;29;20477;-88
2023/07/01 03:58:21;;;;;;;26.70;21.40;;;19.30;99.90;;;;;;4956293;28;20439;-87
2023/07/01 04:01:04;;;;;;;23.60;18.40;;;19.40;99.90;;;;;;4929907;28;20522;-87
2023/07/01 04:03:39;;;;;;;28.40;21.37;;;19.50;99.90;;;;;;4944413;29;20437;-87
2023/07/01 04:06:09;;;;;;;24.30;21.30;;;19.40;99.90;;;;;;4929820;29;20472;-88
2023/07/01 04:08:38;;;;;;;32.77;23.20;;;19.40;99.90;;;;;;4935478;29;20450;-87
2023/07/01 04:11:09;;;;;;;26.83;23.27;;;19.40;99.90;;;;;;4936014;29;20408;-85
2023/07/01 04:13:42;;;;;;;28.87;21.70;;;19.60;99.90;;;;;;4944287;29;20437;-88
2023/07/01 04:16:11;;;;;;;29.30;23.60;;;19.70;99.90;;;;;;4937242;29;20401;-88
2023/07/01 04:18:42;;;;;;;30.50;22.67;;;19.60;99.90;;;;;;4939887;29;20456;-86
2023/07/01 04:21:10;;;;;;;26.27;22.27;;;19.70;99.90;;;;;;4932339;29;20451;-87
2023/07/01 04:23:40;;;;;;;26.37;20.60;;;19.70;99.90;;;;;;4938676;29;20671;-87
2023/07/01 04:26:17;;;;;;;23.73;19.87;;;19.70;99.90;;;;;;4947542;29;20452;-88
2023/07/01 04:28:45;;;;;;;26.27;20.63;;;19.80;99.90;;;;;;4940400;29;20437;-86
2023/07/01 04:31:16;;;;;;;24.73;20.67;;;19.70;99.90;;;;;;4941312;29;20451;-86
2023/07/01 04:33:45;;;;;;;26.33;21.67;;;20.10;99.90;;;;;;4928503;29;20483;-88
2023/07/01 04:36:14;;;;;;;34.57;23.20;;;20.20;99.90;;;;;;4948868;28;20435;-87
2023/07/01 04:38:42;;;;;;;29.10;22.30;;;20.00;99.90;;;;;;4944038;29;20993;-87
2023/07/01 04:41:13;;;;;;;26.53;23.63;;;20.10;99.90;;;;;;4933785;29;20454;-90
2023/07/01 04:43:41;;;;;;;24.87;20.30;;;20.00;99.90;;;;;;4925667;29;20482;-88
2023/07/01 04:46:10;;;;;;;34.83;22.43;;;20.20;99.90;;;;;;4932827;29;20572;-87
2023/07/01 04:48:37;;;;;;;30.47;21.90;;;20.20;99.90;;;;;;4927531;29;20430;-87
2023/07/01 04:51:05;;;;;;;27.40;21.40;;;20.20;99.90;;;;;;4933748;29;20459;-87
2023/07/01 04:53:33;;;;;;;29.00;21.10;;;20.20;99.90;;;;;;4938787;29;20432;-88
2023/07/01 04:56:02;;;;;;;26.37;20.33;;;20.20;99.90;;;;;;4944467;29;20428;-86
2023/07/01 04:58:29;;;;;;;26.00;21.20;;;20.30;99.90;;;;;;4938693;29;20425;-88
2023/07/01 05:01:00;;;;;;;31.67;22.27;;;20.50;99.90;;;;;;4920029;29;20623;-88
2023/07/01 05:03:28;;;;;;;26.97;20.80;;;20.20;99.90;;;;;;4923616;29;20522;-87
2023/07/01 05:05:58;;;;;;;30.67;22.80;;;20.20;99.90;;;;;;4926479;29;20778;-88
2023/07/01 05:08:27;;;;;;;27.23;22.33;;;20.70;99.90;;;;;;4939877;29;20482;-86
2023/07/01 05:10:58;;;;;;;32.30;21.97;;;20.60;99.90;;;;;;4930179;29;20443;-86
2023/07/01 05:13:26;;;;;;;28.20;21.50;;;20.40;99.90;;;;;;4944387;29;20845;-85
2023/07/01 05:15:55;;;;;;;30.07;22.50;;;20.30;99.90;;;;;;4920631;29;20418;-86
2023/07/01 05:18:27;;;;;;;31.63;24.20;;;20.10;99.90;;;;;;4929649;29;20418;-87
2023/07/01 05:20:57;;;;;;;25.07;21.90;;;20.40;99.90;;;;;;4932725;29;20455;-87
2023/07/01 05:23:27;;;;;;;28.27;21.93;;;20.70;99.90;;;;;;4931236;29;20465;-87
2023/07/01 05:25:57;;;;;;;26.17;19.93;;;20.60;99.90;;;;;;4935301;29;20446;-87
2023/07/01 05:28:26;;;;;;;27.33;20.87;;;20.40;99.90;;;;;;4934139;29;20996;-87
2023/07/01 05:30:54;;;;;;;25.90;21.43;;;20.50;99.90;;;;;;4927061;29;20589;-87
2023/07/01 05:33:25;;;;;;;26.00;20.90;;;20.70;99.90;;;;;;4930122;29;20469;-88
2023/07/01 05:35:57;;;;;;;29.97;22.97;;;20.70;99.90;;;;;;4938938;29;20741;-87
2023/07/01 05:38:27;;;;;;;25.07;20.67;;;20.50;99.90;;;;;;4926840;29;20420;-85
2023/07/01 05:40:59;;;;;;;32.43;22.50;;;20.50;99.90;;;;;;4933735;29;20425;-86
2023/07/01 05:43:29;;;;;;;27.70;22.23;;;20.60;99.90;;;;;;4939035;28;20465;-86
2023/07/01 05:46:11;;;;;;;24.73;21.73;;;20.90;99.90;;;;;;4927142;29;20418;-88
2023/07/01 05:48:44;;;;;;;26.03;21.97;;;20.90;99.90;;;;;;4985463;23;20581;-87
2023/07/01 05:51:13;;;;;;;24.13;21.10;;;20.80;99.90;;;;;;4932687;29;20920;-85
2023/07/01 05:53:42;;;;;;;23.87;20.70;;;20.80;99.90;;;;;;4941041;29;20457;-88
2023/07/01 05:56:10;;;;;;;27.73;20.23;;;21.10;99.90;;;;;;4940385;28;20508;-86
2023/07/01 05:58:46;;;;;;;31.93;22.30;;;21.30;99.90;;;;;;4939618;29;20485;-85
2023/07/01 06:01:13;;;;;;;26.60;21.10;;;21.40;99.90;;;;;;4937862;29;20602;-85
2023/07/01 06:03:41;;;;;;;29.10;21.97;;;21.50;99.90;;;;;;4944335;28;20468;-85
2023/07/01 06:06:26;;;;;;;29.33;22.00;;;22.00;99.90;;;;;;4954228;28;20405;-85
2023/07/01 06:08:53;;;;;;;21.17;18.30;;;22.30;99.90;;;;;;4944548;28;20432;-83
2023/07/01 06:11:24;;;;;;;21.50;19.10;;;22.50;99.90;;;;;;4939576;29;20414;-85
2023/07/01 06:13:51;;;;;;;23.20;20.50;;;22.70;99.90;;;;;;4940810;29;20401;-86
2023/07/01 06:16:24;;;;;;;23.23;19.73;;;22.80;99.90;;;;;;4949153;28;20478;-83
2023/07/01 06:18:59;;;;;;;24.83;19.10;;;22.60;99.90;;;;;;5093387;23;21588;-84
2023/07/01 06:21:31;;;;;;;20.37;18.10;;;22.70;99.90;;;;;;4951758;28;20425;-83
2023/07/01 06:23:58;;;;;;;21.90;18.80;;;22.60;99.90;;;;;;4952648;29;20471;-83
2023/07/01 06:26:26;;;;;;;24.80;19.40;;;22.50;99.90;;;;;;4927385;29;20423;-83
2023/07/01 06:28:54;;;;;;;22.10;19.40;;;22.30;99.90;;;;;;4929713;29;20635;-85
2023/07/01 06:31:33;;;;;;;21.63;17.80;;;22.40;99.90;;;;;;4928687;29;20445;-85
2023/07/01 06:34:35;;;;;;;21.20;18.70;;;22.20;99.90;;;;;;4933573;28;20426;-87
2023/07/01 06:37:17;;;;;;;24.80;20.57;;;21.90;99.90;;;;;;4920706;29;20655;-84
2023/07/01 06:42:29;;;;;;;20.30;18.20;;;21.40;99.90;;;;;;5140808;23;20471;-84
2023/07/01 06:44:58;;;;;;;21.87;18.17;;;21.10;99.90;;;;;;4925626;29;20457;-86
2023/07/01 06:47:30;;;;;;;20.43;17.80;;;21.30;99.90;;;;;;4918408;29;20522;-84
2023/07/01 06:49:56;;;;;;;21.03;18.53;;;21.50;99.90;;;;;;4935226;29;20521;-84
2023/07/01 06:52:24;;;;;;;21.80;18.27;;;21.90;99.90;;;;;;4924976;29;20806;-87
2023/07/01 06:54:53;;;;;;;21.40;17.90;;;22.00;99.90;;;;;;4908081;29;20426;-85
2023/07/01 06:57:36;;;;;;;;;;;;;;;;;;;;;
2023/07/01 07:00:12;;;;;;;18.93;16.97;;;21.70;99.90;;;;;;4926506;29;20636;-86
2023/07/01 07:02:49;;;;;;;21.57;17.27;;;21.80;99.90;;;;;;4911550;29;20470;-84
2023/07/01 07:05:19;;;;;;;22.47;17.83;;;21.80;99.90;;;;;;4908470;29;20466;-86
2023/07/01 07:07:50;;;;;;;19.17;17.07;;;21.90;99.90;;;;;;4929148;29;20644;-84
2023/07/01 07:10:20;;;;;;;17.83;15.17;;;21.80;99.90;;;;;;4920034;29;20425;-84
2023/07/01 07:12:55;;;;;;;19.57;17.57;;;22.00;99.90;;;;;;4932819;29;20413;-86
2023/07/01 07:15:23;;;;;;;16.80;15.10;;;22.10;99.90;;;;;;4934455;29;20417;-81
2023/07/01 07:17:50;;;;;;;20.33;16.60;;;22.10;99.90;;;;;;4933957;29;20429;-85
2023/07/01 07:20:19;;;;;;;18.77;16.10;;;22.30;99.90;;;;;;4933750;29;20430;-84
2023/07/01 07:22:47;;;;;;;20.50;17.73;;;22.40;99.90;;;;;;4921199;29;20461;-83
2023/07/01 07:25:17;;;;;;;18.73;16.83;;;22.50;99.90;;;;;;4925053;29;20446;-85
2023/07/01 07:27:46;;;;;;;19.53;17.53;;;22.50;99.90;;;;;;4919696;29;20421;-85
2023/07/01 07:30:19;;;;;;;19.57;17.47;;;22.30;99.90;;;;;;4932393;29;20430;-84
2023/07/01 07:32:48;;;;;;;18.23;16.30;;;22.70;99.90;;;;;;4931151;29;20426;-83
2023/07/01 07:35:21;;;;;;;18.77;16.77;;;22.70;99.90;;;;;;4925526;29;20434;-84
2023/07/01 07:37:51;;;;;;;18.63;16.30;;;22.80;99.90;;;;;;4929748;29;20513;-82
2023/07/01 07:40:23;;;;;;;17.90;14.87;;;23.10;99.90;;;;;;4929225;29;20490;-84
2023/07/01 07:43:07;;;;;;;18.47;16.40;;;23.00;99.90;;;;;;4929439;29;20525;-84
2023/07/01 07:46:13;;;;;;;19.47;17.03;;;23.00;99.90;;;;;;4932671;29;20421;-84
2023/07/01 07:48:41;;;;;;;17.83;15.57;;;23.20;99.90;;;;;;4928344;28;20451;-83
2023/07/01 07:51:14;;;;;;;19.63;15.40;;;23.30;99.90;;;;;;4927717;29;20435;-84
2023/07/01 07:53:45;;;;;;;18.77;15.30;;;23.60;99.90;;;;;;4934199;29;20431;-85
2023/07/01 07:56:23;;;;;;;16.70;14.30;;;23.90;99.90;;;;;;4928742;29;20525;-84
2023/07/01 07:59:16;;;;;;;19.10;16.80;;;23.70;99.90;;;;;;4937226;29;20432;-87
2023/07/01 08:02:09;;;;;;;16.90;15.00;;;23.70;99.90;;;;;;4933091;29;20518;-86
2023/07/01 08:04:44;;;;;;;17.77;15.70;;;23.60;99.90;;;;;;4926822;29;20699;-84
2023/07/01 08:07:14;;;;;;;17.57;15.70;;;23.40;99.90;;;;;;4928391;29;20442;-86
2023/07/01 08:09:41;;;;;;;18.90;15.47;;;23.50;99.90;;;;;;4926228;29;20883;-84
2023/07/01 08:12:11;;;;;;;19.50;16.07;;;23.70;99.90;;;;;;4923922;29;20603;-86
2023/07/01 08:14:40;;;;;;;18.70;16.00;;;23.90;99.90;;;;;;4930798;29;20488;-85
2023/07/01 08:17:09;;;;;;;20.33;15.73;;;24.10;99.90;;;;;;4933068;29;20494;-83
2023/07/01 08:19:36;;;;;;;18.43;15.63;;;23.80;99.90;;;;;;4929532;29;20548;-84
2023/07/01 08:22:18;;;;;;;;;;;;;;;;;;;;;
2023/07/01 08:24:48;;;;;;;15.50;14.00;;;23.90;99.90;;;;;;4933991;29;20449;-85
2023/07/01 08:27:17;;;;;;;18.47;16.57;;;23.70;99.90;;;;;;4922935;29;20523;-84
2023/07/01 08:29:52;;;;;;;17.30;15.50;;;23.50;99.90;;;;;;4934216;29;20489;-84
2023/07/01 08:32:38;;;;;;;;;;;;;;;;;;;;;
2023/07/01 08:35:13;;;;;;;14.97;13.53;;;23.40;99.90;;;;;;4922464;29;20451;-84
2023/07/01 08:37:57;;;;;;;19.33;15.10;;;23.40;99.90;;;;;;4936587;29;20432;-83
2023/07/01 08:40:30;;;;;;;19.00;15.47;;;23.30;99.90;;;;;;4942867;29;20449;-82
2023/07/01 08:43:03;;;;;;;15.70;14.10;;;23.50;99.90;;;;;;4930171;29;20461;-83
2023/07/01 08:45:32;;;;;;;16.50;14.10;;;23.60;99.90;;;;;;5028016;23;20473;-83
2023/07/01 08:48:08;;;;;;;20.07;15.30;;;23.60;99.90;;;;;;4944629;29;20424;-85
2023/07/01 08:50:48;;;;;;;14.77;12.83;;;23.70;99.90;;;;;;4929151;29;20421;-85
2023/07/01 08:53:16;;;;;;;13.90;12.50;;;23.30;99.90;;;;;;4928916;29;20749;-85
2023/07/01 08:55:46;;;;;;;16.63;13.20;;;23.30;99.90;;;;;;4923373;29;20429;-85
2023/07/01 08:58:15;;;;;;;13.40;12.00;;;23.40;99.90;;;;;;4918937;29;20458;-82
2023/07/01 09:00:44;;;;;;;20.07;13.83;;;23.10;99.90;;;;;;4923892;29;20966;-84
2023/07/01 09:03:12;;;;;;;16.70;13.70;;;23.20;99.90;;;;;;4941090;29;20497;-83
2023/07/01 09:05:50;;;;;;;15.37;13.77;;;23.50;99.90;;;;;;4929638;29;20538;-84
2023/07/01 09:08:18;;;;;;;16.73;14.30;;;23.60;99.90;;;;;;4927288;29;20479;-84
2023/07/01 09:10:52;;;;;;;19.47;15.37;;;23.90;99.90;;;;;;4932636;29;20420;-86
2023/07/01 09:13:26;;;;;;;20.70;15.20;;;24.00;99.90;;;;;;4945380;28;20453;-87
2023/07/01 09:15:55;;;;;;;18.80;14.87;;;24.10;99.90;;;;;;4932831;29;20450;-87
2023/07/01 09:18:31;;;;;;;16.90;14.20;;;24.20;99.90;;;;;;4944067;28;20434;-86
2023/07/01 09:21:28;;;;;;;19.47;14.23;;;24.20;99.90;;;;;;4935253;29;20437;-84
2023/07/01 09:23:56;;;;;;;16.20;13.53;;;24.30;99.90;;;;;;4924107;29;20814;-83
2023/07/01 09:26:31;;;;;;;14.43;13.07;;;24.40;99.90;;;;;;4929007;29;20648;-84
2023/07/01 09:29:08;;;;;;;22.73;12.80;;;24.70;99.90;;;;;;4920009;29;20463;-84
2023/07/01 09:31:52;;;;;;;14.57;13.10;;;25.40;99.90;;;;;;4932038;29;20445;-82
2023/07/01 09:34:38;;;;;;;17.63;14.13;;;26.30;99.90;;;;;;4928906;29;20448;-85
2023/07/01 09:37:21;;;;;;;14.43;12.67;;;27.60;99.90;;;;;;4938960;29;20675;-87
2023/07/01 09:40:32;;;;;;;14.77;13.27;;;28.00;99.90;;;;;;4951729;28;20443;-84
2023/07/01 09:43:56;;;;;;;14.57;13.07;;;28.90;99.90;;;;;;4951110;28;20871;-87
2023/07/01 09:47:53;;;;;;;15.13;13.57;;;29.10;99.90;;;;;;4937764;29;20454;-87
2023/07/01 09:50:58;;;;;;;14.90;13.33;;;28.00;99.90;;;;;;4932182;29;20514;-86
2023/07/01 09:53:35;;;;;;;15.53;13.93;;;27.90;99.90;;;;;;4940664;29;20467;-86
2023/07/01 09:56:03;;;;;;;15.30;13.73;;;28.40;99.90;;;;;;4939496;28;20468;-86
2023/07/01 09:58:42;;;;;;;17.27;13.43;;;28.90;99.90;;;;;;4945625;29;20420;-87
2023/07/01 10:01:16;;;;;;;14.57;13.17;;;29.30;99.90;;;;;;4940523;29;20446;-85
2023/07/01 10:04:04;;;;;;;15.67;14.13;;;29.40;99.90;;;;;;4931734;29;20474;-87
2023/07/01 10:06:47;;;;;;;15.50;13.87;;;28.80;99.90;;;;;;4928582;29;20518;-87
2023/07/01 10:12:05;;;;;;;18.23;15.80;;;28.10;99.90;;;;;;5405077;23;20485;-88
2023/07/01 10:14:43;;;;;;;18.53;14.67;;;27.90;99.90;;;;;;4946253;29;20523;-86
2023/07/01 10:17:20;;;;;;;17.63;15.83;;;28.10;99.90;;;;;;4953085;29;20422;-88
2023/07/01 10:19:52;;;;;;;17.00;14.90;;;27.60;99.90;;;;;;4952060;28;20415;-86
2023/07/01 10:22:31;;;;;;;18.87;15.33;;;26.90;99.90;;;;;;4938527;29;20458;-86
2023/07/01 10:25:03;;;;;;;17.93;16.17;;;27.60;99.90;;;;;;4961306;29;20481;-84
2023/07/01 10:27:42;;;;;;;16.80;14.90;;;27.60;99.90;;;;;;4953576;29;20459;-87
2023/07/01 10:30:16;;;;;;;15.53;14.03;;;27.60;99.90;;;;;;4954754;29;20773;-86
2023/07/01 10:32:50;;;;;;;18.23;14.67;;;27.50;99.90;;;;;;4953473;29;20513;-89
2023/07/01 10:35:21;;;;;;;17.20;15.37;;;27.60;99.90;;;;;;4947161;29;20452;-87
2023/07/01 10:38:20;;;;;;;14.77;13.00;;;27.60;99.90;;;;;;4959616;28;20457;-86
2023/07/01 10:40:55;;;;;;;16.17;14.37;;;27.70;99.90;;;;;;4946849;29;20736;-86
2023/07/01 10:43:38;;;;;;;15.17;13.77;;;27.40;99.90;;;;;;4953983;29;20470;-84
2023/07/01 10:46:21;;;;;;;15.90;14.20;;;26.50;99.90;;;;;;4959568;28;20441;-85
2023/07/01 10:49:06;;;;;;;17.57;15.93;;;26.70;99.90;;;;;;4954159;29;20509;-85
2023/07/01 10:51:45;;;;;;;16.23;14.53;;;26.40;99.90;;;;;;4949808;29;20449;-86
2023/07/01 10:54:31;;;;;;;15.63;14.03;;;26.40;99.90;;;;;;4942991;29;20457;-83
2023/07/01 10:57:18;;;;;;;16.20;14.20;;;26.50;99.90;;;;;;4949582;28;20454;-87
2023/07/01 10:59:45;;;;;;;21.63;14.40;;;26.40;99.90;;;;;;4939341;29;20428;-90
2023/07/01 11:02:47;;;;;;;15.60;14.00;;;26.10;99.90;;;;;;4953635;29;20484;-88
2023/07/01 11:05:21;;;;;;;16.17;14.57;;;25.70;99.90;;;;;;4925356;29;20832;-86
2023/07/01 11:07:50;;;;;;;14.80;13.40;;;25.20;99.90;;;;;;4945608;29;20450;-83
2023/07/01 11:10:30;;;;;;;;;;;;;;;;;;;;;
2023/07/01 11:13:05;;;;;;;15.80;14.20;;;24.60;99.90;;;;;;4945190;29;21013;-87
2023/07/01 11:15:34;;;;;;;15.50;14.00;;;25.00;99.90;;;;;;4951903;28;20462;-85
2023/07/01 11:18:09;;;;;;;14.80;13.30;;;25.30;99.90;;;;;;4948769;29;20653;-87
2023/07/01 11:20:55;;;;;;;14.13;12.70;;;25.30;99.90;;;;;;4946872;29;20421;-83
2023/07/01 11:23:30;;;;;;;13.70;12.40;;;25.50;99.90;;;;;;4950929;29;20587;-87
2023/07/01 11:25:59;;;;;;;13.30;11.87;;;25.30;99.90;;;;;;4946268;29;20443;-82
2023/07/01 11:28:37;;;;;;;12.07;10.90;;;25.60;99.90;;;;;;4947059;29;20471;-85
2023/07/01 11:31:17;;;;;;;16.30;13.60;;;25.30;99.90;;;;;;4944510;29;20757;-87
2023/07/01 11:33:56;;;;;;;13.60;11.87;;;25.30;99.90;;;;;;4949623;29;20461;-86
2023/07/01 11:36:39;;;;;;;15.07;13.03;;;25.40;99.90;;;;;;4944448;29;20771;-85
2023/07/01 11:39:15;;;;;;;17.03;12.77;;;25.60;99.90;;;;;;4949030;29;20742;-86
2023/07/01 11:41:46;;;;;;;13.40;12.00;;;25.30;99.90;;;;;;4948544;28;20857;-84
2023/07/01 11:44:23;;;;;;;15.73;12.43;;;25.50;99.90;;;;;;4956128;28;20515;-85
2023/07/01 11:46:53;;;;;;;13.30;12.03;;;25.40;99.90;;;;;;4952531;28;20461;-84
2023/07/01 11:49:27;;;;;;;17.73;14.30;;;25.40;99.90;;;;;;4948573;29;20454;-84
2023/07/01 11:52:00;;;;;;;15.30;13.20;;;25.50;99.90;;;;;;4929044;29;20478;-87
2023/07/01 11:54:44;;;;;;;15.27;13.73;;;25.60;99.90;;;;;;4939338;29;20457;-87
2023/07/01 11:57:15;;;;;;;16.37;14.83;;;25.60;99.90;;;;;;4950212;29;20446;-85
2023/07/01 11:59:45;;;;;;;13.27;12.03;;;25.60;99.90;;;;;;4949613;29;20786;-85
2023/07/01 12:02:14;;;;;;;15.13;13.33;;;25.30;99.90;;;;;;4949058;29;20480;-86
2023/07/01 12:04:42;;;;;;;15.50;14.00;;;25.50;99.90;;;;;;4954230;28;20452;-82
2023/07/01 12:07:17;;;;;;;15.27;13.80;;;25.80;99.90;;;;;;4949573;29;20512;-88
2023/07/01 12:09:46;;;;;;;15.13;13.53;;;25.80;99.90;;;;;;4958728;28;20471;-87
2023/07/01 12:12:36;;;;;;;15.50;14.00;;;25.80;99.90;;;;;;4949477;29;20454;-85
2023/07/01 12:15:21;;;;;;;15.27;13.70;;;25.80;99.90;;;;;;4950975;29;20482;-86
2023/07/01 12:17:53;;;;;;;14.87;13.30;;;25.80;99.90;;;;;;4947644;29;20416;-84
2023/07/01 12:20:22;;;;;;;16.43;14.27;;;25.60;99.90;;;;;;4954227;29;20445;-86
2023/07/01 12:23:01;;;;;;;22.00;15.13;;;25.50;99.90;;;;;;4948564;28;20463;-85
2023/07/01 12:25:29;;;;;;;15.27;13.70;;;25.80;99.90;;;;;;4959019;29;20488;-81
2023/07/01 12:27:56;;;;;;;13.67;12.33;;;25.90;99.90;;;;;;4960778;29;20432;-86
2023/07/01 12:30:23;;;;;;;13.53;12.17;;;26.00;99.90;;;;;;4974536;28;20438;-82
2023/07/01 12:32:54;;;;;;;14.23;12.83;;;26.00;99.90;;;;;;4955578;29;20456;-84
2023/07/01 12:35:21;;;;;;;13.90;12.60;;;26.00;99.90;;;;;;4951356;29;20453;-86
2023/07/01 12:37:50;;;;;;;15.40;12.83;;;26.10;99.90;;;;;;4952141;28;20430;-83
2023/07/01 12:40:20;;;;;;;13.97;12.57;;;26.40;99.90;;;;;;4956574;29;20467;-84
2023/07/01 12:42:56;;;;;;;13.67;12.30;;;26.80;99.90;;;;;;4947730;28;20450;-86
2023/07/01 12:45:24;;;;;;;13.50;12.27;;;27.40;99.90;;;;;;4935459;29;20486;-81
2023/07/01 12:47:56;;;;;;;12.77;11.77;;;27.20;99.90;;;;;;4950860;29;20446;-86
2023/07/01 12:50:34;;;;;;;12.50;11.13;;;27.30;99.90;;;;;;4951476;29;20453;-86
2023/07/01 12:53:02;;;;;;;13.50;12.23;;;27.30;99.90;;;;;;4945103;29;20497;-85
2023/07/01 12:55:31;;;;;;;12.40;11.10;;;26.80;99.90;;;;;;4944292;29;20442;-86
2023/07/01 12:58:01;;;;;;;14.47;11.47;;;26.30;99.90;;;;;;4945590;29;20847;-86
2023/07/01 13:00:31;;;;;;;13.70;12.50;;;26.50;99.90;;;;;;4945792;28;20509;-85
2023/07/01 13:03:17;;;;;;;11.50;10.40;;;26.60;99.90;;;;;;4949721;28;20799;-88
2023/07/01 13:05:55;;;;;;;11.97;10.80;;;27.10;99.90;;;;;;4955562;28;20543;-88
2023/07/01 13:08:22;;;;;;;11.57;10.37;;;27.30;99.90;;;;;;4951158;29;20420;-84
2023/07/01 13:10:49;;;;;;;11.93;10.83;;;27.20;99.90;;;;;;4948213;28;20447;-86
2023/07/01 13:13:19;;;;;;;11.37;10.23;;;27.30;99.90;;;;;;4948917;29;20464;-81
2023/07/01 13:15:52;;;;;;;11.37;10.37;;;27.10;99.90;;;;;;4952125;28;20521;-88
2023/07/01 13:18:25;;;;;;;12.30;9.90;;;26.70;99.90;;;;;;4950630;29;20656;-84
2023/07/01 13:20:52;;;;;;;11.30;10.30;;;26.80;99.90;;;;;;4957576;28;20423;-84
2023/07/01 13:23:30;;;;;;;11.43;10.43;;;26.60;99.90;;;;;;4952494;29;20454;-89
2023/07/01 13:26:06;;;;;;;11.43;10.30;;;26.50;99.90;;;;;;4960812;28;20438;-88
2023/07/01 13:28:33;;;;;;;11.60;10.50;;;26.40;99.90;;;;;;4959406;28;20418;-84
2023/07/01 13:31:01;;;;;;;11.77;10.70;;;26.10;99.90;;;;;;4958680;28;20505;-88
2023/07/01 13:33:31;;;;;;;11.17;10.07;;;26.10;99.90;;;;;;4946255;29;20643;-88
2023/07/01 13:36:10;;;;;;;10.13;9.10;;;25.90;99.90;;;;;;4956563;29;20460;-88
2023/07/01 13:38:41;;;;;;;20.40;10.53;;;25.60;99.90;;;;;;4947327;29;20459;-86
2023/07/01 13:41:20;;;;;;;13.60;12.17;;;24.70;99.90;;;;;;4954562;28;20458;-87
2023/07/01 13:43:49;;;;;;;12.70;11.40;;;24.70;99.90;;;;;;4954779;29;20456;-85